Crum Creek, New York
Current Conditions -  °F | °C
As of 7:15 AM on Tuesday 27 Jan 2015 (Local Time) from KNY0 Reporting Station
Clear Clear  
Wind Chill: 13°   Ceiling: Unl
Heat Index: 13°   Visibility: 10mi
Dew Point: -2°   Wind: 0mph
Humidity: 51%   Direction: NA
Pressure: 29.8"   Gusts: NA
Location:  43.035°N, 74.6217°W
Report Text: KNY0 271215Z AUTO 00000KT 10SM CLR M10/M19 A2980 RMK AO2 T11041189
Loading
Personal Weather Stations






























Interactive Weather Map New forecast layout! Learn more

10-Day Weather Forecast

Advertisements
Track Severe Weather on mobile